Time;durP1;ratioP1;P1;durP2;ratioP2;P2;SDS_P1;SDS_P2;PMS_P1;PMS_P2;Temp;Humidity;BMP_temperature;BMP_pressure;BME280_temperature;BME280_humidity;BME280_pressure;Samples;Min_cycle;Max_cycle;Signal;HPM_P1;HPM_P2
2022/02/03 00:01:17;;;;;;;12.77;6.65;;;;;;;5.10;100.00;97207.47;2045204;28;20664;-63
2022/02/03 00:03:35;;;;;;;14.45;8.48;;;;;;;5.16;100.00;97209.84;2079342;28;20276;-63
2022/02/03 00:06:00;;;;;;;13.65;7.93;;;;;;;5.12;100.00;97211.69;2078302;28;20205;-63
2022/02/03 00:07:08;;;;;;;14.55;9.32;;;;;;;5.09;100.00;97214.38;2078684;28;20536;-63
2022/02/03 00:16:11;;;;;;;17.38;10.27;;;;;;;5.04;100.00;97208.53;2079442;28;20740;-63
2022/02/03 00:23:08;;;;;;;16.05;8.90;;;;;;;5.10;100.00;97215.25;2057384;28;20211;-63
2022/02/03 00:24:19;;;;;;;13.30;8.02;;;;;;;5.06;100.00;97213.69;2079585;28;20197;-64
2022/02/03 00:25:32;;;;;;;13.63;8.57;;;;;;;5.08;100.00;97206.69;2079811;28;20217;-63
2022/02/03 00:26:35;;;;;;;15.25;7.75;;;;;;;5.03;100.00;97211.19;2079674;28;20219;-63
2022/02/03 00:27:56;;;;;;;14.13;7.65;;;;;;;5.05;100.00;97206.78;2080419;28;20648;-63
2022/02/03 00:28:59;;;;;;;10.88;7.35;;;;;;;5.04;100.00;97197.31;2080366;28;20659;-64
2022/02/03 00:30:06;;;;;;;10.95;7.18;;;;;;;5.03;100.00;97204.22;2080118;28;20216;-63
2022/02/03 00:31:22;;;;;;;11.77;7.53;;;;;;;5.07;100.00;97203.22;2080806;28;20197;-64
2022/02/03 00:32:52;;;;;;;8.70;6.57;;;;;;;5.04;100.00;97199.91;2080185;28;20675;-64
2022/02/03 00:34:03;;;;;;;8.90;6.25;;;;;;;5.05;100.00;97196.41;2080211;28;20227;-64
2022/02/03 00:36:38;;;;;;;8.13;5.38;;;;;;;5.01;100.00;97207.81;2080638;28;20204;-64
2022/02/03 00:48:32;;;;;;;9.07;5.88;;;;;;;5.00;100.00;97208.69;2079488;28;20197;-64
2022/02/03 00:50:51;;;;;;;8.27;5.07;;;;;;;4.94;100.00;97196.81;2080417;28;20199;-63
2022/02/03 00:52:01;;;;;;;9.10;5.90;;;;;;;5.00;100.00;97203.50;2080657;28;20670;-64
2022/02/03 00:53:06;;;;;;;9.45;6.00;;;;;;;4.97;100.00;97206.22;2080658;28;20189;-64
2022/02/03 00:54:10;;;;;;;11.38;6.63;;;;;;;4.92;100.00;97204.66;2079215;28;20308;-64
2022/02/03 00:55:11;;;;;;;11.63;6.90;;;;;;;4.97;100.00;97208.81;2079720;28;20616;-64
2022/02/03 00:56:15;;;;;;;11.30;7.30;;;;;;;4.97;100.00;97211.41;2080373;28;20300;-64
2022/02/03 00:57:43;;;;;;;10.77;7.38;;;;;;;4.99;100.00;97207.00;2080485;28;20295;-64
2022/02/03 00:58:57;;;;;;;8.93;5.80;;;;;;;4.99;100.00;97209.59;2069937;28;20755;-64
2022/02/03 01:00:09;;;;;;;9.57;6.15;;;;;;;4.96;100.00;97200.19;2078709;28;20591;-64
2022/02/03 01:01:16;;;;;;;10.85;6.32;;;;;;;4.95;100.00;97195.88;2080302;28;20342;-64
2022/02/03 01:02:21;;;;;;;10.38;7.35;;;;;;;4.97;100.00;97201.03;2080240;28;20228;-63
2022/02/03 01:03:27;;;;;;;9.02;6.60;;;;;;;4.92;100.00;97199.44;2075284;28;20695;-63
2022/02/03 01:04:31;;;;;;;9.55;6.93;;;;;;;4.87;100.00;97184.94;2075146;28;20221;-63
2022/02/03 01:05:35;;;;;;;11.57;7.65;;;;;;;4.96;100.00;97202.78;2079489;28;20644;-63
2022/02/03 01:06:51;;;;;;;11.90;6.68;;;;;;;4.97;100.00;97204.47;2078629;28;20251;-63
2022/02/03 01:07:54;;;;;;;9.63;7.07;;;;;;;4.96;100.00;97197.59;2079495;28;20563;-63
2022/02/03 01:08:56;;;;;;;11.65;7.18;;;;;;;4.93;100.00;97188.16;2079828;28;20217;-63
2022/02/03 01:10:03;;;;;;;8.27;6.60;;;;;;;4.94;100.00;97195.06;2079981;28;20236;-63
2022/02/03 01:11:13;;;;;;;9.80;6.78;;;;;;;4.93;100.00;97188.16;2080091;28;20551;-64
2022/02/03 01:12:26;;;;;;;12.05;6.63;;;;;;;4.94;100.00;97182.06;2080396;28;20205;-64
2022/02/03 01:13:46;;;;;;;10.93;7.10;;;;;;;5.02;100.00;97188.72;2079361;28;20197;-63
2022/02/03 01:16:03;;;;;;;8.13;6.32;;;;;;;5.06;100.00;97193.75;2080470;28;20201;-63
2022/02/03 01:17:56;;;;;;;7.03;5.90;;;;;;;5.05;100.00;97186.00;2080158;28;20189;-63
2022/02/03 01:43:21;;;;;;;6.60;5.10;;;;;;;5.10;100.00;97160.72;2079414;28;20193;-64
2022/02/03 01:44:31;;;;;;;7.10;4.95;;;;;;;5.17;100.00;97164.78;2079731;28;20208;-63
2022/02/03 01:45:50;;;;;;;9.77;4.70;;;;;;;5.22;100.00;97156.81;2079133;28;20201;-64
2022/02/03 01:49:13;;;;;;;7.20;5.03;;;;;;;5.17;100.00;97156.97;2079328;28;20201;-64
2022/02/03 01:51:43;;;;;;;9.40;5.95;;;;;;;5.06;100.00;97136.63;2078735;28;20302;-64
2022/02/03 01:52:47;;;;;;;5.85;4.65;;;;;;;5.17;100.00;97156.13;2079430;28;20197;-64
2022/02/03 01:53:49;;;;;;;8.45;5.35;;;;;;;5.21;100.00;97161.16;2079362;28;20231;-64
2022/02/03 01:54:55;;;;;;;10.15;5.60;;;;;;;5.07;100.00;97155.66;2079372;28;20251;-64
2022/02/03 01:56:04;;;;;;;9.52;5.90;;;;;;;5.24;100.00;97155.84;2080088;28;20683;-64
2022/02/03 01:57:13;;;;;;;11.63;6.20;;;;;;;5.28;100.00;97153.97;2079486;28;20792;-64
2022/02/03 01:58:28;;;;;;;6.82;5.53;;;;;;;5.21;100.00;97157.72;2079702;28;20215;-65
2022/02/03 01:59:34;;;;;;;14.82;5.43;;;;;;;5.11;100.00;97159.81;2079514;28;20228;-64
2022/02/03 02:00:41;;;;;;;9.13;5.10;;;;;;;5.09;100.00;97157.28;2087270;28;20231;-64
2022/02/03 02:01:44;;;;;;;7.45;4.50;;;;;;;5.13;100.00;97155.41;2085830;28;20192;-65
2022/02/03 02:03:10;;;;;;;7.72;5.63;;;;;;;5.14;100.00;97165.75;2079971;28;20196;-64
2022/02/03 02:04:30;;;;;;;7.32;4.50;;;;;;;4.93;100.00;97136.25;2078440;28;20592;-64
2022/02/03 02:05:45;;;;;;;8.00;4.95;;;;;;;5.10;100.00;97165.94;2079865;28;20330;-64
2022/02/03 02:07:05;;;;;;;7.38;4.80;;;;;;;5.06;100.00;97160.00;2077924;28;20228;-65
2022/02/03 02:08:28;;;;;;;9.00;5.00;;;;;;;5.04;100.00;97161.81;2077465;28;20197;-64
2022/02/03 02:09:59;;;;;;;9.55;4.93;;;;;;;5.00;100.00;97157.63;2079251;28;20227;-64
2022/02/03 02:12:01;;;;;;;8.95;4.90;;;;;;;5.02;100.00;97157.56;2083353;28;20784;-64
2022/02/03 02:15:40;;;;;;;5.75;3.85;;;;;;;4.95;100.00;97149.16;2045608;28;20226;-64
2022/02/03 02:37:20;;;;;;;8.15;4.63;;;;;;;5.12;100.00;97146.78;2079082;28;20204;-64
2022/02/03 02:39:49;;;;;;;4.93;3.50;;;;;;;5.10;100.00;97140.81;2079115;28;20252;-65
2022/02/03 02:42:35;;;;;;;4.25;3.20;;;;;;;5.05;100.00;97141.88;2079527;28;20204;-64
2022/02/03 02:44:14;;;;;;;5.97;4.00;;;;;;;5.12;100.00;97151.13;2079615;28;20200;-64
2022/02/03 02:45:22;;;;;;;6.47;4.80;;;;;;;5.03;100.00;97143.69;2078714;28;20320;-64
2022/02/03 02:46:51;;;;;;;5.22;3.63;;;;;;;5.04;100.00;97150.59;2078916;28;20312;-64
2022/02/03 02:48:06;;;;;;;4.40;3.92;;;;;;;5.07;100.00;97151.28;2079238;28;20197;-64
2022/02/03 02:49:18;;;;;;;6.60;4.22;;;;;;;5.06;100.00;97149.63;2079017;28;20258;-64
2022/02/03 02:50:42;;;;;;;6.47;4.80;;;;;;;5.05;100.00;97149.66;2077780;28;20245;-65
2022/02/03 02:51:53;;;;;;;6.18;4.10;;;;;;;5.05;100.00;97149.66;2078794;28;20325;-64
2022/02/03 02:54:24;;;;;;;5.05;4.13;;;;;;;5.08;100.00;97146.97;2077703;28;20639;-64
2022/02/03 02:56:26;;;;;;;6.65;4.22;;;;;;;5.06;100.00;97135.78;2079107;28;20205;-64
2022/02/03 02:59:44;;;;;;;5.25;4.10;;;;;;;5.03;100.00;97117.72;2079471;28;20212;-64
2022/02/03 03:29:24;;;;;;;5.35;3.88;;;;;;;4.87;100.00;97096.69;2079013;28;20205;-64
2022/02/03 03:34:16;;;;;;;5.85;4.03;;;;;;;4.87;100.00;97104.50;2079448;28;20723;-64
2022/02/03 03:36:26;;;;;;;6.15;4.30;;;;;;;4.61;100.00;97059.63;2074150;28;20580;-64
2022/02/03 03:38:40;;;;;;;10.27;3.42;;;;;;;4.83;100.00;97095.13;2074466;28;20224;-65
2022/02/03 03:39:48;;;;;;;6.22;4.15;;;;;;;4.82;100.00;97093.44;2074385;28;20193;-65
2022/02/03 03:40:53;;;;;;;5.07;3.58;;;;;;;4.82;100.00;97090.81;2072936;28;20744;-65
2022/02/03 03:47:01;;;;;;;3.88;3.05;;;;;;;4.93;100.00;97099.91;2073422;28;20588;-64
2022/02/03 03:48:05;;;;;;;6.03;3.15;;;;;;;4.83;100.00;97095.13;2074140;28;20291;-65
2022/02/03 03:49:07;;;;;;;4.22;2.70;;;;;;;4.90;100.00;97097.44;2074740;28;20945;-64
2022/02/03 03:50:14;;;;;;;4.65;3.40;;;;;;;4.89;100.00;97093.13;2073202;28;20579;-65
2022/02/03 03:51:18;;;;;;;7.22;3.33;;;;;;;4.90;100.00;97100.03;2073810;28;20259;-64
2022/02/03 03:52:26;;;;;;;5.38;3.70;;;;;;;4.90;100.00;97091.38;2077527;28;20267;-64
2022/02/03 03:53:38;;;;;;;4.80;3.22;;;;;;;4.97;100.00;97092.00;2077194;28;20193;-64
2022/02/03 03:54:54;;;;;;;4.28;2.80;;;;;;;4.97;100.00;97100.63;2074835;28;20213;-64
2022/02/03 03:56:14;;;;;;;3.67;2.85;;;;;;;4.95;100.00;97100.69;2073781;28;20196;-65
2022/02/03 04:32:03;;;;;;;4.93;3.25;;;;;;;4.71;100.00;97067.91;2063821;28;20204;-65
2022/02/03 04:42:31;;;;;;;3.03;2.28;;;;;;;4.75;100.00;97049.53;2074301;28;20193;-63
2022/02/03 05:03:46;;;;;;;2.92;2.20;;;;;;;4.75;100.00;97044.34;2076063;28;20422;-64
2022/02/03 05:06:06;;;;;;;3.15;2.50;;;;;;;4.69;100.00;97033.38;2075833;28;20417;-64
2022/02/03 05:08:06;;;;;;;2.88;2.42;;;;;;;4.70;100.00;97037.66;2076122;28;20560;-63
2022/02/03 05:10:00;;;;;;;2.88;2.05;;;;;;;4.75;100.00;97040.94;2074994;28;20193;-64
2022/02/03 05:16:18;;;;;;;3.40;2.20;;;;;;;4.79;100.00;97034.72;2050718;28;20294;-64
2022/02/03 05:25:20;;;;;;;3.03;2.25;;;;;;;4.82;100.00;97025.94;2074315;28;20204;-64
2022/02/03 05:26:57;;;;;;;1.90;1.80;;;;;;;4.83;100.00;97025.06;2074810;28;20189;-63
2022/02/03 05:35:05;;;;;;;3.17;2.13;;;;;;;4.83;100.00;97018.09;2075096;28;20352;-64
2022/02/03 05:43:50;;;;;;;2.85;2.35;;;;;;;4.83;100.00;97017.28;2075533;28;20387;-63
2022/02/03 05:45:39;;;;;;;5.28;3.17;;;;;;;4.84;100.00;97011.16;2074227;28;20197;-63
2022/02/03 05:46:49;;;;;;;3.88;2.60;;;;;;;4.85;100.00;97003.31;2074794;28;20201;-64
2022/02/03 06:01:58;;;;;;;3.60;3.30;;;;;;;4.36;100.00;96945.56;2075625;28;20241;-63
2022/02/03 06:04:29;;;;;;;5.80;3.70;;;;;;;4.56;100.00;96986.28;2074798;28;20808;-63
2022/02/03 06:08:01;;;;;;;5.72;2.75;;;;;;;4.55;100.00;96984.63;2074581;28;20561;-64
2022/02/03 06:13:13;;;;;;;8.15;3.75;;;;;;;4.51;100.00;96991.66;2075059;28;20208;-64
2022/02/03 06:14:26;;;;;;;4.75;3.60;;;;;;;4.50;100.00;96996.91;2074617;28;20205;-63
2022/02/03 06:15:38;;;;;;;7.05;3.47;;;;;;;4.45;100.00;96997.09;2074274;28;20197;-63
2022/02/03 06:17:06;;;;;;;6.43;4.13;;;;;;;4.50;100.00;97004.69;2074899;28;20205;-63
2022/02/03 06:23:28;;;;;;;5.85;3.25;;;;;;;4.43;100.00;96998.91;2075082;28;20224;-63
2022/02/03 06:24:35;;;;;;;6.32;3.72;;;;;;;4.44;100.00;96995.38;2073060;28;20200;-63
2022/02/03 06:28:17;;;;;;;4.07;2.95;;;;;;;4.36;100.00;96977.53;2075639;28;20201;-63
2022/02/03 06:29:24;;;;;;;4.65;3.17;;;;;;;4.39;100.00;96975.72;2074484;28;20611;-63
2022/02/03 06:30:26;;;;;;;5.18;2.92;;;;;;;4.45;100.00;96983.25;2073046;28;20245;-63
2022/02/03 06:31:28;;;;;;;5.20;3.05;;;;;;;4.44;100.00;96971.22;2075185;28;20792;-63
2022/02/03 06:32:30;;;;;;;4.43;3.05;;;;;;;4.40;100.00;96970.47;2075288;28;20534;-63
2022/02/03 06:33:31;;;;;;;5.53;2.92;;;;;;;4.38;100.00;96972.28;2074255;28;20453;-63
2022/02/03 06:34:33;;;;;;;4.97;3.30;;;;;;;4.40;100.00;96961.88;2073422;28;20197;-63
2022/02/03 06:35:34;;;;;;;4.90;3.40;;;;;;;4.41;100.00;96969.59;2075173;28;20193;-63
2022/02/03 06:36:37;;;;;;;2.70;2.10;;;;;;;4.40;100.00;96960.09;2075397;28;20222;-63
2022/02/03 06:37:39;;;;;;;5.63;3.25;;;;;;;4.48;100.00;96967.59;2072373;28;20619;-63
2022/02/03 06:38:40;;;;;;;5.40;3.10;;;;;;;4.47;100.00;96968.47;2074535;28;20197;-63
2022/02/03 06:39:42;;;;;;;4.63;2.80;;;;;;;4.42;100.00;96963.47;2074610;28;20523;-63
2022/02/03 06:40:44;;;;;;;5.22;3.08;;;;;;;4.16;100.00;96923.84;2054338;28;20208;-63
2022/02/03 06:41:50;;;;;;;8.52;4.28;;;;;;;4.46;100.00;96965.06;2082699;28;20200;-63
2022/02/03 06:42:56;;;;;;;10.07;2.75;;;;;;;4.48;100.00;96973.63;2075148;28;20458;-63
2022/02/03 06:43:57;;;;;;;3.92;2.80;;;;;;;4.46;100.00;96970.25;2075006;28;20223;-63
2022/02/03 06:45:10;;;;;;;3.45;2.60;;;;;;;4.35;100.00;96962.88;2071638;28;20227;-63
2022/02/03 06:46:13;;;;;;;7.32;3.45;;;;;;;4.41;100.00;96967.00;2073311;28;20327;-63
2022/02/03 06:48:19;;;;;;;6.85;3.58;;;;;;;4.44;100.00;96966.88;2074320;28;20197;-63
2022/02/03 06:49:53;;;;;;;6.55;3.97;;;;;;;4.44;100.00;96976.41;2073870;28;20201;-63
2022/02/03 06:50:51;;;;;;;6.45;3.08;;;;;;;4.34;100.00;96968.97;2072722;28;20209;-63
2022/02/03 06:51:59;;;;;;;6.32;3.70;;;;;;;4.40;100.00;96978.25;2075169;28;20233;-64
2022/02/03 06:53:08;;;;;;;7.28;4.43;;;;;;;4.28;100.00;96951.03;2075255;28;20193;-63
2022/02/03 06:54:18;;;;;;;4.45;3.38;;;;;;;4.44;100.00;96976.41;2074179;28;20792;-63
2022/02/03 06:56:48;;;;;;;4.40;3.35;;;;;;;4.46;100.00;96975.44;2079845;28;20294;-61
2022/02/03 06:58:58;;;;;;;5.00;2.92;;;;;;;4.46;100.00;96972.00;2079951;28;20280;-62
2022/02/03 07:00:07;;;;;;;3.15;2.58;;;;;;;4.44;100.00;96966.88;2079122;28;20205;-62
2022/02/03 07:01:23;;;;;;;5.13;3.17;;;;;;;4.45;100.00;96970.28;2079812;28;20668;-62
2022/02/03 07:02:28;;;;;;;3.33;2.50;;;;;;;4.48;100.00;96972.78;2079783;28;20655;-62
2022/02/03 07:03:34;;;;;;;3.33;2.22;;;;;;;4.41;100.00;96961.81;2079945;28;20200;-62
2022/02/03 07:04:43;;;;;;;3.40;2.30;;;;;;;4.48;100.00;96985.75;2079471;28;20197;-63
2022/02/03 07:05:45;;;;;;;3.42;2.25;;;;;;;4.45;100.00;96984.13;2078513;28;20221;-62
2022/02/03 07:06:47;;;;;;;2.47;2.22;;;;;;;4.46;100.00;96992.75;2079866;28;20711;-62
2022/02/03 07:07:48;;;;;;;4.68;2.65;;;;;;;4.47;100.00;96992.69;2087236;28;20295;-62
2022/02/03 07:08:51;;;;;;;3.80;2.80;;;;;;;4.48;100.00;96990.94;2085123;28;20200;-62
2022/02/03 07:09:53;;;;;;;4.68;2.67;;;;;;;4.51;100.00;96990.84;2078712;28;20234;-60
2022/02/03 07:10:56;;;;;;;17.23;10.77;;;;;;;4.49;100.00;96990.06;2079129;28;20220;-62
2022/02/03 07:11:57;;;;;;;5.68;3.95;;;;;;;4.48;100.00;96975.38;2079617;28;20204;-62
2022/02/03 07:12:59;;;;;;;14.60;7.97;;;;;;;4.47;100.00;96984.91;2079730;28;20192;-62
2022/02/03 07:14:01;;;;;;;7.82;4.15;;;;;;;4.46;100.00;96982.38;2079772;28;20204;-61
2022/02/03 07:15:04;;;;;;;4.28;2.92;;;;;;;4.48;100.00;96980.56;2079196;28;20205;-60
2022/02/03 07:16:05;;;;;;;3.42;2.25;;;;;;;4.47;100.00;96982.31;2079237;28;20208;-61
2022/02/03 07:17:07;;;;;;;2.63;2.15;;;;;;;4.49;100.00;96979.69;2079403;28;20197;-60
2022/02/03 07:18:09;;;;;;;3.10;2.30;;;;;;;4.48;100.00;96968.44;2079636;28;20200;-60
2022/02/03 07:19:10;;;;;;;1.60;1.42;;;;;;;4.55;100.00;96974.25;2079055;28;20343;-60
2022/02/03 07:20:14;;;;;;;7.72;2.63;;;;;;;4.49;100.00;96967.53;2078518;28;20776;-60
2022/02/03 07:21:15;;;;;;;2.80;2.10;;;;;;;4.49;100.00;96971.91;2079713;28;20197;-60
2022/02/03 07:22:17;;;;;;;2.80;1.77;;;;;;;4.63;100.00;96971.34;2079730;28;20201;-60
2022/02/03 07:23:21;;;;;;;2.03;1.77;;;;;;;4.62;100.00;96975.69;2079146;28;20201;-60
2022/02/03 07:24:23;;;;;;;2.20;1.80;;;;;;;4.58;100.00;96971.50;2078676;28;20205;-60
2022/02/03 07:25:24;;;;;;;2.67;2.20;;;;;;;4.60;100.00;96972.31;2078694;28;20237;-60
2022/02/03 07:26:26;;;;;;;2.17;1.75;;;;;;;4.66;100.00;96979.00;2079750;28;20227;-60
2022/02/03 07:27:28;;;;;;;2.85;2.10;;;;;;;4.66;100.00;96976.41;2078972;28;20197;-60
2022/02/03 07:28:29;;;;;;;2.15;1.85;;;;;;;4.73;100.00;96972.69;2079729;28;20200;-60
2022/02/03 07:29:31;;;;;;;2.55;1.98;;;;;;;4.73;100.00;96964.91;2078994;28;20208;-60
2022/02/03 07:30:32;;;;;;;6.10;3.80;;;;;;;4.81;100.00;96978.41;2078523;28;20239;-60
2022/02/03 07:31:34;;;;;;;4.85;3.50;;;;;;;4.80;100.00;96966.31;2079560;28;20664;-60
2022/02/03 07:32:35;;;;;;;4.03;2.65;;;;;;;4.73;100.00;96965.72;2078989;28;20204;-60
2022/02/03 07:33:37;;;;;;;3.30;2.65;;;;;;;4.80;100.00;96962.88;2079133;28;20260;-60
2022/02/03 07:34:39;;;;;;;4.38;2.15;;;;;;;4.77;100.00;96958.66;2079709;28;20236;-60
2022/02/03 07:35:45;;;;;;;2.50;2.03;;;;;;;4.74;100.00;96959.66;2079200;28;20629;-60
2022/02/03 07:36:47;;;;;;;2.97;2.67;;;;;;;4.80;100.00;96953.34;2078168;28;20668;-60
2022/02/03 07:37:50;;;;;;;3.65;2.08;;;;;;;4.80;100.00;96958.53;2079527;28;20260;-60
2022/02/03 07:38:52;;;;;;;3.22;2.90;;;;;;;4.87;100.00;96954.78;2079800;28;20193;-61
2022/02/03 07:39:54;;;;;;;4.50;4.10;;;;;;;4.84;100.00;96949.75;2078423;28;20200;-60
2022/02/03 07:41:02;;;;;;;4.38;3.97;;;;;;;4.87;100.00;96947.00;2078861;28;20220;-60
2022/02/03 07:42:04;;;;;;;4.03;3.30;;;;;;;4.70;100.00;96926.09;2079513;28;20213;-60
2022/02/03 07:43:09;;;;;;;2.90;2.47;;;;;;;4.91;100.00;96947.72;2079490;28;20200;-60
2022/02/03 07:44:14;;;;;;;2.53;2.03;;;;;;;4.81;100.00;96946.44;2079535;28;20255;-60
2022/02/03 07:45:17;;;;;;;2.13;1.92;;;;;;;4.86;100.00;96953.13;2077041;28;20225;-60
2022/02/03 07:46:18;;;;;;;2.10;1.45;;;;;;;4.77;99.91;96947.47;2078873;28;20201;-60
2022/02/03 07:47:20;;;;;;;1.98;1.40;;;;;;;4.89;100.00;96947.78;2079770;28;20221;-60
2022/02/03 07:48:22;;;;;;;3.33;2.03;;;;;;;4.75;99.98;96931.94;2079590;28;20207;-60
2022/02/03 07:49:23;;;;;;;4.57;2.13;;;;;;;4.83;99.90;96953.22;2079453;28;20197;-60
2022/02/03 07:50:25;;;;;;;2.08;1.83;;;;;;;4.80;100.00;96953.34;2079075;28;20225;-64
2022/02/03 07:51:27;;;;;;;2.22;2.03;;;;;;;4.78;100.00;96949.97;2079381;28;20706;-64
2022/02/03 07:52:28;;;;;;;2.15;1.58;;;;;;;4.75;100.00;96948.34;2079487;28;20197;-64
2022/02/03 07:53:30;;;;;;;2.33;1.80;;;;;;;4.78;100.00;96952.56;2079678;28;20204;-64
2022/02/03 07:54:32;;;;;;;1.80;1.67;;;;;;;4.80;100.00;96947.31;2079662;28;20561;-64
2022/02/03 07:55:35;;;;;;;2.83;1.35;;;;;;;4.60;100.00;96911.78;2078488;28;20228;-64
2022/02/03 07:56:37;;;;;;;2.00;1.45;;;;;;;4.77;99.95;96943.09;2079013;28;20203;-64
2022/02/03 07:57:46;;;;;;;2.00;1.52;;;;;;;4.73;99.11;96925.97;2079050;28;20207;-64
2022/02/03 07:58:47;;;;;;;1.48;1.38;;;;;;;4.78;99.87;96934.41;2079497;28;20671;-64
2022/02/03 07:59:49;;;;;;;1.27;1.17;;;;;;;4.79;99.22;96928.31;2079427;28;20193;-64
2022/02/03 08:00:50;;;;;;;2.17;1.85;;;;;;;4.79;99.46;96917.94;2079105;28;20221;-64
2022/02/03 08:01:52;;;;;;;3.45;1.88;;;;;;;4.84;99.54;96928.97;2079468;28;20537;-63
2022/02/03 08:02:53;;;;;;;3.35;1.63;;;;;;;4.83;100.00;96924.69;2079436;28;20193;-63
2022/02/03 08:03:56;;;;;;;32.92;21.85;;;;;;;4.87;99.63;96918.47;2078863;28;20204;-63
2022/02/03 08:05:01;;;;;;;29.55;16.98;;;;;;;4.87;99.78;96912.44;2078254;28;20568;-64
2022/02/03 08:06:07;;;;;;;15.88;9.27;;;;;;;4.85;98.83;96909.06;2079299;28;20209;-64
2022/02/03 08:07:10;;;;;;;8.23;4.25;;;;;;;4.82;99.26;96911.75;2079216;28;20620;-64
2022/02/03 08:08:26;;;;;;;4.00;2.67;;;;;;;4.87;99.25;96913.28;2078820;28;20679;-64
2022/02/03 08:09:45;;;;;;;3.28;1.70;;;;;;;4.78;98.28;96892.88;2078291;28;20199;-63
2022/02/03 08:10:53;;;;;;;2.78;1.60;;;;;;;4.93;98.45;96917.38;2077416;28;20224;-63
2022/02/03 08:11:55;;;;;;;2.55;1.63;;;;;;;4.88;98.24;96912.38;2078392;28;20198;-64
2022/02/03 08:12:59;;;;;;;1.40;1.20;;;;;;;4.95;98.17;96918.16;2079547;28;20413;-63
2022/02/03 08:15:10;;;;;;;4.18;1.90;;;;;;;4.97;98.12;96912.91;2079150;28;20208;-64
2022/02/03 08:16:32;;;;;;;3.38;2.40;;;;;;;4.83;97.99;96885.75;2079336;28;20193;-63
2022/02/03 08:17:38;;;;;;;3.00;2.10;;;;;;;4.97;97.70;96894.72;2079533;28;20208;-64
2022/02/03 08:18:42;;;;;;;3.55;2.15;;;;;;;5.12;97.65;96896.69;2078132;28;20197;-64
2022/02/03 08:19:55;;;;;;;2.45;1.88;;;;;;;5.07;97.81;96890.84;2078683;28;20231;-64
2022/02/03 08:21:02;;;;;;;3.05;1.60;;;;;;;5.09;97.60;96891.63;2079107;28;20228;-64
2022/02/03 08:22:31;;;;;;;2.20;1.70;;;;;;;5.15;96.78;96888.75;2079278;28;20208;-63
2022/02/03 08:23:52;;;;;;;2.53;1.60;;;;;;;5.19;96.48;96892.06;2078677;28;20209;-63
2022/02/03 08:24:53;;;;;;;2.45;1.10;;;;;;;5.17;96.22;96873.13;2079357;28;20212;-63
2022/02/03 08:28:58;;;;;;;1.95;1.38;;;;;;;5.26;95.46;96868.38;2079364;28;20208;-64
2022/02/03 08:30:19;;;;;;;1.60;1.20;;;;;;;5.22;95.77;96879.81;2078962;28;20197;-63
2022/02/03 08:31:24;;;;;;;1.80;1.20;;;;;;;5.24;95.92;96875.38;2077964;28;20207;-63
2022/02/03 08:32:28;;;;;;;1.58;1.20;;;;;;;5.34;95.36;96874.06;2079978;28;20197;-63
2022/02/03 08:33:31;;;;;;;1.80;1.30;;;;;;;5.30;95.82;96869.91;2080413;28;20622;-64
2022/02/03 08:35:57;;;;;;;7.05;1.38;;;;;;;5.34;95.68;96889.66;2045968;28;20365;-63
2022/02/03 08:37:00;;;;;;;3.05;1.20;;;;;;;5.34;95.29;96894.00;2076270;28;20205;-63
2022/02/03 08:39:19;;;;;;;1.27;1.00;;;;;;;5.28;95.40;96895.13;2079518;28;20651;-63
2022/02/03 08:40:31;;;;;;;2.00;1.45;;;;;;;5.25;95.06;96894.41;2079927;28;20239;-63
2022/02/03 08:41:33;;;;;;;1.63;1.30;;;;;;;5.33;95.80;96892.31;2079861;28;20197;-64
2022/02/03 08:42:35;;;;;;;1.52;1.40;;;;;;;5.31;95.51;96887.22;2081128;28;20225;-64
2022/02/03 08:43:38;;;;;;;1.65;1.33;;;;;;;5.37;95.97;96888.69;2080388;28;20201;-64
2022/02/03 08:44:40;;;;;;;3.47;1.60;;;;;;;5.40;95.63;96888.53;2081009;28;20281;-64
2022/02/03 08:45:43;;;;;;;2.10;1.30;;;;;;;5.38;95.04;96892.97;2080719;28;20633;-64
2022/02/03 08:46:44;;;;;;;2.03;1.65;;;;;;;5.38;95.03;96892.13;2080776;28;20197;-63
2022/02/03 08:47:46;;;;;;;1.35;1.20;;;;;;;5.48;95.29;96896.00;2081000;28;20189;-63
2022/02/03 08:48:47;;;;;;;1.38;1.15;;;;;;;5.53;94.75;96894.06;2080978;28;20528;-64
2022/02/03 08:49:49;;;;;;;2.65;1.55;;;;;;;5.41;94.68;96882.47;2080706;28;20671;-60
2022/02/03 08:50:51;;;;;;;1.92;1.70;;;;;;;5.38;94.26;96876.53;2079955;28;20232;-60
2022/02/03 08:51:55;;;;;;;2.05;1.10;;;;;;;5.52;94.37;96881.97;2080566;28;20233;-60
2022/02/03 08:54:06;;;;;;;2.17;1.52;;;;;;;5.65;94.97;96875.31;2080810;28;20197;-60
2022/02/03 08:57:33;;;;;;;1.80;1.30;;;;;;;5.74;94.14;96861.94;2080893;28;20205;-60
2022/02/03 09:52:24;;;;;;;1.17;0.90;;;;;;;9.35;74.19;96809.13;2078155;28;20670;-60
2022/02/03 09:57:04;;;;;;;1.75;1.15;;;;;;;7.65;80.47;96817.88;2080680;28;20201;-64
2022/02/03 09:59:17;;;;;;;1.35;1.00;;;;;;;7.33;83.32;96803.03;2080577;28;20197;-64
2022/02/03 10:00:41;;;;;;;1.40;1.30;;;;;;;7.26;82.85;96813.84;2078550;28;20227;-64
2022/02/03 10:01:55;;;;;;;1.25;1.02;;;;;;;7.00;83.80;96800.41;2078580;28;20197;-64
2022/02/03 10:02:59;;;;;;;1.10;1.00;;;;;;;7.16;84.18;96805.69;2079644;28;20196;-64
2022/02/03 10:04:29;;;;;;;2.50;1.60;;;;;;;7.27;84.33;96815.53;2079912;28;20193;-64
2022/02/03 10:05:34;;;;;;;1.73;1.25;;;;;;;7.20;82.91;96802.00;2079941;28;20225;-64
2022/02/03 10:06:50;;;;;;;2.13;1.38;;;;;;;7.15;83.17;96809.19;2080370;28;20209;-64
2022/02/03 10:07:52;;;;;;;2.40;1.15;;;;;;;7.42;83.03;96800.88;2079859;28;20197;-64
2022/02/03 10:09:13;;;;;;;1.85;1.15;;;;;;;8.83;78.03;96781.75;2080178;28;20212;-64
2022/02/03 10:10:15;;;;;;;1.70;1.10;;;;;;;10.15;73.39;96802.41;2079486;28;20201;-64
2022/02/03 10:11:21;;;;;;;1.35;1.08;;;;;;;10.91;70.12;96793.13;2079695;28;20208;-64
2022/02/03 10:12:34;;;;;;;1.55;1.05;;;;;;;11.67;67.73;96797.53;2080433;28;20211;-64
2022/02/03 10:13:46;;;;;;;1.48;0.90;;;;;;;11.45;66.48;96797.38;2078532;28;20224;-64
2022/02/03 10:14:48;;;;;;;1.10;0.90;;;;;;;11.36;66.94;96788.31;2072275;28;20211;-64
2022/02/03 10:16:04;;;;;;;1.20;0.90;;;;;;;11.76;65.68;96777.69;2079209;28;20228;-64
2022/02/03 10:17:07;;;;;;;1.10;1.00;;;;;;;12.74;62.19;96782.91;2080249;28;20219;-64
2022/02/03 10:18:26;;;;;;;1.05;0.95;;;;;;;13.38;60.48;96782.44;2080446;28;20531;-64
2022/02/03 10:19:34;;;;;;;1.42;0.88;;;;;;;12.48;63.06;96770.84;2079733;28;20214;-64
2022/02/03 10:20:36;;;;;;;1.17;1.00;;;;;;;12.03;63.67;96774.91;2079188;28;20221;-64
2022/02/03 10:21:40;;;;;;;1.20;0.90;;;;;;;12.93;62.32;96766.56;2080198;28;20202;-64
2022/02/03 10:22:53;;;;;;;1.35;0.93;;;;;;;12.90;61.70;96771.19;2080300;28;20197;-65
2022/02/03 10:24:03;;;;;;;7.70;1.17;;;;;;;12.67;62.35;96760.66;2079292;28;20673;-65
2022/02/03 10:25:13;;;;;;;1.10;1.00;;;;;;;11.13;66.19;96768.94;2079895;28;20673;-64
2022/02/03 10:26:14;;;;;;;1.10;0.90;;;;;;;10.48;70.23;96770.63;2072669;28;20197;-65
2022/02/03 10:27:28;;;;;;;1.75;1.10;;;;;;;10.79;69.73;96765.97;2079721;28;20201;-64
2022/02/03 10:28:30;;;;;;;1.45;1.17;;;;;;;10.18;71.59;96764.75;2080272;28;20682;-64
2022/02/03 10:29:38;;;;;;;1.25;1.00;;;;;;;10.06;71.29;96775.06;2080217;28;20313;-64
2022/02/03 10:30:47;;;;;;;1.15;0.90;;;;;;;11.01;69.95;96759.28;2079801;28;20270;-64
2022/02/03 10:31:50;;;;;;;1.40;1.15;;;;;;;10.73;69.29;96755.09;2079937;28;20532;-64
2022/02/03 10:32:53;;;;;;;2.15;1.08;;;;;;;10.31;69.82;96752.59;2080350;28;20201;-65
2022/02/03 10:34:07;;;;;;;3.38;1.20;;;;;;;11.53;67.90;96739.13;2080066;28;20197;-64
2022/02/03 10:35:27;;;;;;;1.70;1.20;;;;;;;11.92;67.50;96727.63;2078278;28;20200;-64
2022/02/03 10:36:43;;;;;;;1.67;1.20;;;;;;;10.46;71.86;96732.41;2079654;28;20200;-61
2022/02/03 10:37:49;;;;;;;2.60;1.90;;;;;;;9.90;75.23;96709.78;2079454;28;20200;-61
2022/02/03 10:41:57;;;;;;;2.75;1.75;;;;;;;10.23;72.33;96705.06;2079892;28;20277;-61
2022/02/03 10:43:17;;;;;;;2.65;1.70;;;;;;;10.03;73.55;96722.91;2079129;28;20193;-61
2022/02/03 10:46:11;;;;;;;12.30;2.65;;;;;;;8.96;77.48;96711.31;2078558;28;20228;-61
2022/02/03 10:54:14;;;;;;;2.95;1.73;;;;;;;7.43;83.49;96709.59;2062546;28;20194;-64
2022/02/03 11:03:59;;;;;;;2.40;1.95;;;;;;;7.23;85.58;96709.81;2079872;28;20994;-64
2022/02/03 11:08:48;;;;;;;3.42;2.42;;;;;;;6.75;87.51;96694.09;2065999;28;20201;-64
2022/02/03 11:10:01;;;;;;;3.88;2.35;;;;;;;6.76;87.85;96690.56;2078996;28;20216;-64
2022/02/03 11:11:33;;;;;;;3.05;2.40;;;;;;;6.67;88.35;96694.50;2079049;28;20704;-64